sensor_id;sensor_type;location;lat;lon;timestamp;temperature;humidity
46562;DHT22;32289;42.688;23.330;2023-04-25T00:03:00;11.10;99.90
46562;DHT22;32289;42.688;23.330;2023-04-25T00:06:41;11.00;99.90
46562;DHT22;32289;42.688;23.330;2023-04-25T00:10:22;11.00;99.90
46562;DHT22;32289;42.688;23.330;2023-04-25T00:14:04;10.70;99.90
46562;DHT22;32289;42.688;23.330;2023-04-25T00:17:45;10.50;99.90
46562;DHT22;32289;42.688;23.330;2023-04-25T00:21:26;10.40;99.90
46562;DHT22;32289;42.688;23.330;2023-04-25T00:25:07;10.20;99.90
46562;DHT22;32289;42.688;23.330;2023-04-25T00:28:48;10.20;99.90
46562;DHT22;32289;42.688;23.330;2023-04-25T00:32:28;10.30;99.90
46562;DHT22;32289;42.688;23.330;2023-04-25T00:36:09;10.20;99.90
46562;DHT22;32289;42.688;23.330;2023-04-25T00:39:50;10.30;99.90
46562;DHT22;32289;42.688;23.330;2023-04-25T00:43:32;10.20;99.90
46562;DHT22;32289;42.688;23.330;2023-04-25T00:47:14;10.10;99.90
46562;DHT22;32289;42.688;23.330;2023-04-25T00:50:57;10.20;99.90
46562;DHT22;32289;42.688;23.330;2023-04-25T00:54:38;10.20;99.90
46562;DHT22;32289;42.688;23.330;2023-04-25T00:58:20;10.40;99.90
46562;DHT22;32289;42.688;23.330;2023-04-25T01:02:01;10.30;99.90
46562;DHT22;32289;42.688;23.330;2023-04-25T01:05:42;10.40;99.90
46562;DHT22;32289;42.688;23.330;2023-04-25T01:09:24;10.50;99.90
46562;DHT22;32289;42.688;23.330;2023-04-25T01:13:05;10.40;99.90
46562;DHT22;32289;42.688;23.330;2023-04-25T01:16:45;10.50;99.90
46562;DHT22;32289;42.688;23.330;2023-04-25T01:20:27;10.50;99.90
46562;DHT22;32289;42.688;23.330;2023-04-25T01:24:09;10.40;99.90
46562;DHT22;32289;42.688;23.330;2023-04-25T01:27:50;10.40;99.90
46562;DHT22;32289;42.688;23.330;2023-04-25T01:31:32;10.30;99.90
46562;DHT22;32289;42.688;23.330;2023-04-25T01:35:13;10.10;99.90
46562;DHT22;32289;42.688;23.330;2023-04-25T01:38:54;10.00;99.90
46562;DHT22;32289;42.688;23.330;2023-04-25T01:42:37;10.10;99.90
46562;DHT22;32289;42.688;23.330;2023-04-25T01:46:18;10.00;99.90
46562;DHT22;32289;42.688;23.330;2023-04-25T01:49:59;10.10;99.90
46562;DHT22;32289;42.688;23.330;2023-04-25T01:53:39;9.90;99.90
46562;DHT22;32289;42.688;23.330;2023-04-25T01:57:20;10.10;99.90
46562;DHT22;32289;42.688;23.330;2023-04-25T02:01:01;10.20;99.90
46562;DHT22;32289;42.688;23.330;2023-04-25T02:04:42;10.10;99.90
46562;DHT22;32289;42.688;23.330;2023-04-25T02:08:22;10.00;99.90
46562;DHT22;32289;42.688;23.330;2023-04-25T02:12:03;10.00;99.90
46562;DHT22;32289;42.688;23.330;2023-04-25T02:15:44;10.00;99.90
46562;DHT22;32289;42.688;23.330;2023-04-25T02:19:25;10.00;99.90
46562;DHT22;32289;42.688;23.330;2023-04-25T02:23:05;10.10;99.90
46562;DHT22;32289;42.688;23.330;2023-04-25T02:26:46;10.10;99.90
46562;DHT22;32289;42.688;23.330;2023-04-25T02:30:27;10.10;99.90
46562;DHT22;32289;42.688;23.330;2023-04-25T02:34:08;10.10;99.90
46562;DHT22;32289;42.688;23.330;2023-04-25T02:37:48;10.00;99.90
46562;DHT22;32289;42.688;23.330;2023-04-25T02:41:29;10.00;99.90
46562;DHT22;32289;42.688;23.330;2023-04-25T02:45:10;9.70;99.90
46562;DHT22;32289;42.688;23.330;2023-04-25T02:48:51;9.80;99.90
46562;DHT22;32289;42.688;23.330;2023-04-25T02:52:31;9.70;99.90
46562;DHT22;32289;42.688;23.330;2023-04-25T02:56:12;9.60;99.90
46562;DHT22;32289;42.688;23.330;2023-04-25T02:59:53;9.50;99.90
46562;DHT22;32289;42.688;23.330;2023-04-25T03:03:33;9.40;99.90
46562;DHT22;32289;42.688;23.330;2023-04-25T03:07:14;9.40;99.90
46562;DHT22;32289;42.688;23.330;2023-04-25T03:10:55;9.30;99.90
46562;DHT22;32289;42.688;23.330;2023-04-25T03:14:35;9.40;99.90
46562;DHT22;32289;42.688;23.330;2023-04-25T03:18:16;9.30;99.90
46562;DHT22;32289;42.688;23.330;2023-04-25T03:21:57;9.30;99.90
46562;DHT22;32289;42.688;23.330;2023-04-25T03:25:37;9.20;99.90
46562;DHT22;32289;42.688;23.330;2023-04-25T03:29:18;9.20;99.90
46562;DHT22;32289;42.688;23.330;2023-04-25T03:32:59;9.30;99.90
46562;DHT22;32289;42.688;23.330;2023-04-25T03:36:39;9.30;99.90
46562;DHT22;32289;42.688;23.330;2023-04-25T03:40:20;9.40;99.90
46562;DHT22;32289;42.688;23.330;2023-04-25T03:44:01;9.40;99.90
46562;DHT22;32289;42.688;23.330;2023-04-25T03:47:41;9.50;99.90
46562;DHT22;32289;42.688;23.330;2023-04-25T03:51:22;9.70;99.90
46562;DHT22;32289;42.688;23.330;2023-04-25T03:55:03;9.90;99.90
46562;DHT22;32289;42.688;23.330;2023-04-25T03:58:45;9.90;99.90
46562;DHT22;32289;42.688;23.330;2023-04-25T04:02:25;10.00;99.90
46562;DHT22;32289;42.688;23.330;2023-04-25T04:06:07;9.90;99.90
46562;DHT22;32289;42.688;23.330;2023-04-25T04:09:48;10.00;99.90
46562;DHT22;32289;42.688;23.330;2023-04-25T04:13:29;10.10;99.90
46562;DHT22;32289;42.688;23.330;2023-04-25T04:17:10;10.30;99.90
46562;DHT22;32289;42.688;23.330;2023-04-25T04:20:51;10.50;99.90
46562;DHT22;32289;42.688;23.330;2023-04-25T04:24:31;10.50;99.90
46562;DHT22;32289;42.688;23.330;2023-04-25T04:28:13;10.40;99.90
46562;DHT22;32289;42.688;23.330;2023-04-25T04:31:53;10.30;99.90
46562;DHT22;32289;42.688;23.330;2023-04-25T04:35:34;10.40;99.90
46562;DHT22;32289;42.688;23.330;2023-04-25T04:39:18;10.50;99.90
46562;DHT22;32289;42.688;23.330;2023-04-25T04:42:59;10.40;99.90
46562;DHT22;32289;42.688;23.330;2023-04-25T04:46:39;10.40;99.90
46562;DHT22;32289;42.688;23.330;2023-04-25T04:50:22;10.70;99.90
46562;DHT22;32289;42.688;23.330;2023-04-25T04:54:03;10.50;99.90
46562;DHT22;32289;42.688;23.330;2023-04-25T04:57:44;10.50;99.90
46562;DHT22;32289;42.688;23.330;2023-04-25T05:01:25;10.40;99.90
46562;DHT22;32289;42.688;23.330;2023-04-25T05:05:06;10.50;99.90
46562;DHT22;32289;42.688;23.330;2023-04-25T05:08:47;11.20;99.90
46562;DHT22;32289;42.688;23.330;2023-04-25T05:12:30;11.10;99.90
46562;DHT22;32289;42.688;23.330;2023-04-25T05:16:12;11.40;99.90
46562;DHT22;32289;42.688;23.330;2023-04-25T05:19:53;11.50;99.90
46562;DHT22;32289;42.688;23.330;2023-04-25T05:23:34;11.00;99.90
46562;DHT22;32289;42.688;23.330;2023-04-25T05:27:17;10.80;99.90
46562;DHT22;32289;42.688;23.330;2023-04-25T05:30:58;10.60;99.90
46562;DHT22;32289;42.688;23.330;2023-04-25T05:34:38;10.60;99.90
46562;DHT22;32289;42.688;23.330;2023-04-25T05:38:19;10.80;99.90
46562;DHT22;32289;42.688;23.330;2023-04-25T05:42:00;11.10;99.90
46562;DHT22;32289;42.688;23.330;2023-04-25T05:45:42;10.90;99.90
46562;DHT22;32289;42.688;23.330;2023-04-25T05:49:23;12.00;99.90
46562;DHT22;32289;42.688;23.330;2023-04-25T05:53:04;11.70;99.90
46562;DHT22;32289;42.688;23.330;2023-04-25T05:56:46;11.30;99.90
46562;DHT22;32289;42.688;23.330;2023-04-25T06:00:26;11.50;99.90
46562;DHT22;32289;42.688;23.330;2023-04-25T06:04:07;11.40;99.90
46562;DHT22;32289;42.688;23.330;2023-04-25T06:07:48;11.50;99.90
46562;DHT22;32289;42.688;23.330;2023-04-25T06:11:29;11.70;99.90
46562;DHT22;32289;42.688;23.330;2023-04-25T06:15:10;12.10;99.90
46562;DHT22;32289;42.688;23.330;2023-04-25T06:18:51;12.20;99.90
46562;DHT22;32289;42.688;23.330;2023-04-25T06:22:31;12.30;99.90
46562;DHT22;32289;42.688;23.330;2023-04-25T06:26:12;13.00;99.90
46562;DHT22;32289;42.688;23.330;2023-04-25T06:29:53;12.20;99.90
46562;DHT22;32289;42.688;23.330;2023-04-25T06:33:33;12.40;99.90
46562;DHT22;32289;42.688;23.330;2023-04-25T06:37:14;12.90;99.90
46562;DHT22;32289;42.688;23.330;2023-04-25T06:40:55;13.50;99.90
46562;DHT22;32289;42.688;23.330;2023-04-25T06:44:35;14.30;99.90
46562;DHT22;32289;42.688;23.330;2023-04-25T06:48:16;14.10;99.90
46562;DHT22;32289;42.688;23.330;2023-04-25T06:51:57;15.40;99.90
46562;DHT22;32289;42.688;23.330;2023-04-25T06:55:38;14.30;99.90
46562;DHT22;32289;42.688;23.330;2023-04-25T06:59:19;13.50;99.90
46562;DHT22;32289;42.688;23.330;2023-04-25T07:02:59;13.20;99.90
46562;DHT22;32289;42.688;23.330;2023-04-25T07:06:40;13.60;99.90
46562;DHT22;32289;42.688;23.330;2023-04-25T07:10:23;13.80;99.90
46562;DHT22;32289;42.688;23.330;2023-04-25T07:14:03;13.40;99.90
46562;DHT22;32289;42.688;23.330;2023-04-25T07:17:44;12.80;99.90
46562;DHT22;32289;42.688;23.330;2023-04-25T07:21:25;12.80;99.90
46562;DHT22;32289;42.688;23.330;2023-04-25T07:25:07;12.80;99.90
46562;DHT22;32289;42.688;23.330;2023-04-25T07:28:48;12.80;99.90
46562;DHT22;32289;42.688;23.330;2023-04-25T07:32:31;13.10;99.90
46562;DHT22;32289;42.688;23.330;2023-04-25T07:36:12;13.50;99.90
46562;DHT22;32289;42.688;23.330;2023-04-25T07:39:53;13.90;99.90
46562;DHT22;32289;42.688;23.330;2023-04-25T07:43:34;13.90;99.90
46562;DHT22;32289;42.688;23.330;2023-04-25T07:47:14;13.90;99.90
46562;DHT22;32289;42.688;23.330;2023-04-25T07:50:56;13.80;99.90
46562;DHT22;32289;42.688;23.330;2023-04-25T07:54:36;14.00;99.90
46562;DHT22;32289;42.688;23.330;2023-04-25T07:58:17;14.00;99.90
46562;DHT22;32289;42.688;23.330;2023-04-25T08:02:01;14.40;99.90
46562;DHT22;32289;42.688;23.330;2023-04-25T08:05:43;14.50;99.90
46562;DHT22;32289;42.688;23.330;2023-04-25T08:09:23;14.20;99.90
46562;DHT22;32289;42.688;23.330;2023-04-25T08:13:05;15.40;99.90
46562;DHT22;32289;42.688;23.330;2023-04-25T08:16:45;17.80;99.90
46562;DHT22;32289;42.688;23.330;2023-04-25T08:20:27;16.60;99.90
46562;DHT22;32289;42.688;23.330;2023-04-25T08:24:07;17.30;99.90
46562;DHT22;32289;42.688;23.330;2023-04-25T08:27:48;17.50;99.90
46562;DHT22;32289;42.688;23.330;2023-04-25T08:31:29;19.30;90.80
46562;DHT22;32289;42.688;23.330;2023-04-25T08:35:10;20.50;77.50
46562;DHT22;32289;42.688;23.330;2023-04-25T08:38:51;16.90;96.50
46562;DHT22;32289;42.688;23.330;2023-04-25T08:42:33;15.70;99.90
46562;DHT22;32289;42.688;23.330;2023-04-25T08:46:18;13.90;99.90
46562;DHT22;32289;42.688;23.330;2023-04-25T08:50:00;13.80;99.90
46562;DHT22;32289;42.688;23.330;2023-04-25T08:53:43;13.90;99.90
46562;DHT22;32289;42.688;23.330;2023-04-25T08:57:25;14.30;99.90
46562;DHT22;32289;42.688;23.330;2023-04-25T09:01:06;15.20;99.90
46562;DHT22;32289;42.688;23.330;2023-04-25T09:04:46;16.70;99.90
46562;DHT22;32289;42.688;23.330;2023-04-25T09:08:28;14.90;99.90
46562;DHT22;32289;42.688;23.330;2023-04-25T09:12:10;14.40;99.90
46562;DHT22;32289;42.688;23.330;2023-04-25T09:15:52;14.40;99.90
46562;DHT22;32289;42.688;23.330;2023-04-25T09:19:35;15.30;99.90
46562;DHT22;32289;42.688;23.330;2023-04-25T09:23:16;17.00;99.90
46562;DHT22;32289;42.688;23.330;2023-04-25T09:27:02;19.20;99.90
46562;DHT22;32289;42.688;23.330;2023-04-25T09:30:46;17.90;97.00
46562;DHT22;32289;42.688;23.330;2023-04-25T09:34:26;16.60;99.90
46562;DHT22;32289;42.688;23.330;2023-04-25T09:38:15;16.20;99.90
46562;DHT22;32289;42.688;23.330;2023-04-25T09:41:59;16.20;99.90
46562;DHT22;32289;42.688;23.330;2023-04-25T09:45:43;17.90;98.20
46562;DHT22;32289;42.688;23.330;2023-04-25T09:49:28;17.20;99.90
46562;DHT22;32289;42.688;23.330;2023-04-25T09:53:09;18.30;95.80
46562;DHT22;32289;42.688;23.330;2023-04-25T09:56:52;20.00;90.90
46562;DHT22;32289;42.688;23.330;2023-04-25T10:00:33;20.40;76.10
46562;DHT22;32289;42.688;23.330;2023-04-25T10:04:20;20.50;79.60
46562;DHT22;32289;42.688;23.330;2023-04-25T10:08:03;18.60;94.80
46562;DHT22;32289;42.688;23.330;2023-04-25T10:11:46;18.00;99.90
46562;DHT22;32289;42.688;23.330;2023-04-25T10:15:28;17.20;99.90
46562;DHT22;32289;42.688;23.330;2023-04-25T10:19:10;16.70;99.90
46562;DHT22;32289;42.688;23.330;2023-04-25T10:22:54;16.80;99.90
46562;DHT22;32289;42.688;23.330;2023-04-25T10:26:36;14.40;99.90
46562;DHT22;32289;42.688;23.330;2023-04-25T10:30:18;15.20;99.90
46562;DHT22;32289;42.688;23.330;2023-04-25T10:34:02;17.50;99.90
46562;DHT22;32289;42.688;23.330;2023-04-25T10:41:47;19.50;88.00
46562;DHT22;32289;42.688;23.330;2023-04-25T10:45:51;17.70;92.50
46562;DHT22;32289;42.688;23.330;2023-04-25T10:49:32;17.50;93.90
46562;DHT22;32289;42.688;23.330;2023-04-25T10:53:17;18.40;90.10
46562;DHT22;32289;42.688;23.330;2023-04-25T10:56:58;18.70;83.80
46562;DHT22;32289;42.688;23.330;2023-04-25T11:00:39;18.30;88.80
46562;DHT22;32289;42.688;23.330;2023-04-25T11:04:21;19.10;90.10
46562;DHT22;32289;42.688;23.330;2023-04-25T11:08:11;18.50;81.70
46562;DHT22;32289;42.688;23.330;2023-04-25T11:11:56;18.80;81.30
46562;DHT22;32289;42.688;23.330;2023-04-25T11:15:37;19.40;77.10
46562;DHT22;32289;42.688;23.330;2023-04-25T11:19:19;19.70;71.50
46562;DHT22;32289;42.688;23.330;2023-04-25T11:23:00;19.00;67.60
46562;DHT22;32289;42.688;23.330;2023-04-25T11:26:42;18.10;66.80
46562;DHT22;32289;42.688;23.330;2023-04-25T11:30:25;17.80;70.20
46562;DHT22;32289;42.688;23.330;2023-04-25T11:34:06;17.00;79.50
46562;DHT22;32289;42.688;23.330;2023-04-25T11:37:47;16.80;87.80
46562;DHT22;32289;42.688;23.330;2023-04-25T11:41:28;17.00;87.30
46562;DHT22;32289;42.688;23.330;2023-04-25T11:45:09;16.40;87.20
46562;DHT22;32289;42.688;23.330;2023-04-25T11:48:51;16.70;95.30
46562;DHT22;32289;42.688;23.330;2023-04-25T11:52:43;16.00;99.60
46562;DHT22;32289;42.688;23.330;2023-04-25T11:56:23;15.40;99.90
46562;DHT22;32289;42.688;23.330;2023-04-25T12:00:12;15.50;99.90
46562;DHT22;32289;42.688;23.330;2023-04-25T12:03:54;16.70;99.90
46562;DHT22;32289;42.688;23.330;2023-04-25T12:07:35;17.20;95.60
46562;DHT22;32289;42.688;23.330;2023-04-25T12:11:21;18.30;96.70
46562;DHT22;32289;42.688;23.330;2023-04-25T12:15:13;17.50;88.50
46562;DHT22;32289;42.688;23.330;2023-04-25T12:18:56;17.80;86.60
46562;DHT22;32289;42.688;23.330;2023-04-25T12:22:37;17.20;80.70
46562;DHT22;32289;42.688;23.330;2023-04-25T12:26:18;17.10;82.30
46562;DHT22;32289;42.688;23.330;2023-04-25T12:30:00;17.30;80.50
46562;DHT22;32289;42.688;23.330;2023-04-25T12:33:42;17.00;83.20
46562;DHT22;32289;42.688;23.330;2023-04-25T12:37:24;16.30;89.70
46562;DHT22;32289;42.688;23.330;2023-04-25T12:41:05;14.30;99.90
46562;DHT22;32289;42.688;23.330;2023-04-25T12:44:45;13.30;99.90
46562;DHT22;32289;42.688;23.330;2023-04-25T12:48:27;13.10;99.90
46562;DHT22;32289;42.688;23.330;2023-04-25T12:52:07;12.90;99.90
46562;DHT22;32289;42.688;23.330;2023-04-25T12:55:48;13.00;99.90
46562;DHT22;32289;42.688;23.330;2023-04-25T12:59:29;13.00;99.90
46562;DHT22;32289;42.688;23.330;2023-04-25T13:03:13;12.90;99.90
46562;DHT22;32289;42.688;23.330;2023-04-25T13:06:54;13.50;99.90
46562;DHT22;32289;42.688;23.330;2023-04-25T13:10:34;13.60;99.90
46562;DHT22;32289;42.688;23.330;2023-04-25T13:14:16;13.80;99.90
46562;DHT22;32289;42.688;23.330;2023-04-25T13:17:57;13.70;99.90
46562;DHT22;32289;42.688;23.330;2023-04-25T13:21:38;13.60;99.90
46562;DHT22;32289;42.688;23.330;2023-04-25T13:25:18;13.30;99.90
46562;DHT22;32289;42.688;23.330;2023-04-25T13:28:59;13.30;99.90
46562;DHT22;32289;42.688;23.330;2023-04-25T13:32:40;13.30;99.90
46562;DHT22;32289;42.688;23.330;2023-04-25T13:36:21;13.20;99.90
46562;DHT22;32289;42.688;23.330;2023-04-25T13:40:07;13.10;99.90
46562;DHT22;32289;42.688;23.330;2023-04-25T13:43:49;13.00;99.90
46562;DHT22;32289;42.688;23.330;2023-04-25T13:47:30;13.00;99.90
46562;DHT22;32289;42.688;23.330;2023-04-25T13:51:11;12.90;99.90
46562;DHT22;32289;42.688;23.330;2023-04-25T13:54:52;12.70;99.90
46562;DHT22;32289;42.688;23.330;2023-04-25T13:58:33;12.70;99.90
46562;DHT22;32289;42.688;23.330;2023-04-25T14:02:14;12.70;99.90
46562;DHT22;32289;42.688;23.330;2023-04-25T14:05:55;12.90;99.90
46562;DHT22;32289;42.688;23.330;2023-04-25T14:09:36;13.60;99.90
46562;DHT22;32289;42.688;23.330;2023-04-25T14:13:16;13.80;99.90
46562;DHT22;32289;42.688;23.330;2023-04-25T14:16:57;14.10;99.90
46562;DHT22;32289;42.688;23.330;2023-04-25T14:20:38;14.30;99.90
46562;DHT22;32289;42.688;23.330;2023-04-25T14:24:18;13.80;99.90
46562;DHT22;32289;42.688;23.330;2023-04-25T14:27:59;14.10;99.90
46562;DHT22;32289;42.688;23.330;2023-04-25T14:31:40;13.90;99.90
46562;DHT22;32289;42.688;23.330;2023-04-25T14:35:21;13.80;99.90
46562;DHT22;32289;42.688;23.330;2023-04-25T14:39:02;13.70;99.90
46562;DHT22;32289;42.688;23.330;2023-04-25T14:42:43;14.20;99.90
46562;DHT22;32289;42.688;23.330;2023-04-25T14:46:24;14.00;99.90
46562;DHT22;32289;42.688;23.330;2023-04-25T14:50:06;13.80;99.90
46562;DHT22;32289;42.688;23.330;2023-04-25T14:53:47;14.00;99.90
46562;DHT22;32289;42.688;23.330;2023-04-25T14:57:27;14.00;99.90
46562;DHT22;32289;42.688;23.330;2023-04-25T15:01:08;13.90;99.90
46562;DHT22;32289;42.688;23.330;2023-04-25T15:04:49;13.90;99.90
46562;DHT22;32289;42.688;23.330;2023-04-25T15:08:30;14.00;99.90
46562;DHT22;32289;42.688;23.330;2023-04-25T15:12:11;13.90;99.90
46562;DHT22;32289;42.688;23.330;2023-04-25T15:15:52;14.00;99.90
46562;DHT22;32289;42.688;23.330;2023-04-25T15:19:34;14.10;99.90
46562;DHT22;32289;42.688;23.330;2023-04-25T15:23:15;14.10;99.90
46562;DHT22;32289;42.688;23.330;2023-04-25T15:26:56;14.00;99.90
46562;DHT22;32289;42.688;23.330;2023-04-25T15:30:37;13.50;99.90
46562;DHT22;32289;42.688;23.330;2023-04-25T15:34:17;13.60;99.90
46562;DHT22;32289;42.688;23.330;2023-04-25T15:37:58;13.50;99.90
46562;DHT22;32289;42.688;23.330;2023-04-25T15:41:39;13.60;99.90
46562;DHT22;32289;42.688;23.330;2023-04-25T15:45:24;13.50;99.90
46562;DHT22;32289;42.688;23.330;2023-04-25T15:49:06;13.90;99.90
46562;DHT22;32289;42.688;23.330;2023-04-25T15:52:49;13.70;99.90
46562;DHT22;32289;42.688;23.330;2023-04-25T15:56:30;13.30;99.90
46562;DHT22;32289;42.688;23.330;2023-04-25T16:00:12;13.50;99.90
46562;DHT22;32289;42.688;23.330;2023-04-25T16:03:54;13.60;99.90
46562;DHT22;32289;42.688;23.330;2023-04-25T16:07:38;13.60;99.90
46562;DHT22;32289;42.688;23.330;2023-04-25T16:11:19;13.70;99.90
46562;DHT22;32289;42.688;23.330;2023-04-25T16:15:00;13.40;99.90
46562;DHT22;32289;42.688;23.330;2023-04-25T16:18:41;13.10;99.90
46562;DHT22;32289;42.688;23.330;2023-04-25T16:22:21;13.00;99.90
46562;DHT22;32289;42.688;23.330;2023-04-25T16:26:02;12.90;99.90
46562;DHT22;32289;42.688;23.330;2023-04-25T16:29:44;12.80;99.90
46562;DHT22;32289;42.688;23.330;2023-04-25T16:33:25;12.80;99.90
46562;DHT22;32289;42.688;23.330;2023-04-25T16:37:06;12.70;99.90
46562;DHT22;32289;42.688;23.330;2023-04-25T16:40:46;12.40;99.90
46562;DHT22;32289;42.688;23.330;2023-04-25T16:44:27;12.20;99.90
46562;DHT22;32289;42.688;23.330;2023-04-25T16:48:08;12.00;99.90
46562;DHT22;32289;42.688;23.330;2023-04-25T16:51:48;12.10;99.90
46562;DHT22;32289;42.688;23.330;2023-04-25T16:55:29;12.00;99.90
46562;DHT22;32289;42.688;23.330;2023-04-25T16:59:10;11.90;99.90
46562;DHT22;32289;42.688;23.330;2023-04-25T17:02:51;11.90;99.90
46562;DHT22;32289;42.688;23.330;2023-04-25T17:06:32;12.00;99.90
46562;DHT22;32289;42.688;23.330;2023-04-25T17:10:14;12.00;99.90
46562;DHT22;32289;42.688;23.330;2023-04-25T17:13:55;11.90;99.90
46562;DHT22;32289;42.688;23.330;2023-04-25T17:17:36;11.90;99.90
46562;DHT22;32289;42.688;23.330;2023-04-25T17:21:17;11.80;99.90
46562;DHT22;32289;42.688;23.330;2023-04-25T17:24:57;11.70;99.90
46562;DHT22;32289;42.688;23.330;2023-04-25T17:28:38;11.60;99.90
46562;DHT22;32289;42.688;23.330;2023-04-25T17:32:21;11.30;99.90
46562;DHT22;32289;42.688;23.330;2023-04-25T17:36:02;11.30;99.90
46562;DHT22;32289;42.688;23.330;2023-04-25T17:39:44;11.10;99.90
46562;DHT22;32289;42.688;23.330;2023-04-25T17:43:25;11.10;99.90
46562;DHT22;32289;42.688;23.330;2023-04-25T17:47:07;11.20;99.90
46562;DHT22;32289;42.688;23.330;2023-04-25T17:50:49;11.20;99.90
46562;DHT22;32289;42.688;23.330;2023-04-25T17:54:30;11.10;99.90
46562;DHT22;32289;42.688;23.330;2023-04-25T17:58:11;11.20;99.90
46562;DHT22;32289;42.688;23.330;2023-04-25T18:01:52;10.90;99.90
46562;DHT22;32289;42.688;23.330;2023-04-25T18:05:33;10.90;99.90
46562;DHT22;32289;42.688;23.330;2023-04-25T18:09:14;10.80;99.90
46562;DHT22;32289;42.688;23.330;2023-04-25T18:12:57;10.90;99.90
46562;DHT22;32289;42.688;23.330;2023-04-25T18:16:38;10.90;99.90
46562;DHT22;32289;42.688;23.330;2023-04-25T18:20:19;10.70;99.90
46562;DHT22;32289;42.688;23.330;2023-04-25T18:24:00;10.70;99.90
46562;DHT22;32289;42.688;23.330;2023-04-25T18:27:41;10.80;99.90
46562;DHT22;32289;42.688;23.330;2023-04-25T18:31:22;10.70;99.90
46562;DHT22;32289;42.688;23.330;2023-04-25T18:35:05;10.70;99.90
46562;DHT22;32289;42.688;23.330;2023-04-25T18:38:46;10.70;99.90
46562;DHT22;32289;42.688;23.330;2023-04-25T18:42:29;10.70;99.90
46562;DHT22;32289;42.688;23.330;2023-04-25T18:46:10;10.70;99.90
46562;DHT22;32289;42.688;23.330;2023-04-25T18:49:51;10.70;99.90
46562;DHT22;32289;42.688;23.330;2023-04-25T18:53:32;10.60;99.90
46562;DHT22;32289;42.688;23.330;2023-04-25T18:57:12;10.60;99.90
46562;DHT22;32289;42.688;23.330;2023-04-25T19:00:55;10.60;99.90
46562;DHT22;32289;42.688;23.330;2023-04-25T19:04:36;10.50;99.90
46562;DHT22;32289;42.688;23.330;2023-04-25T19:08:17;10.60;99.90
46562;DHT22;32289;42.688;23.330;2023-04-25T19:11:58;10.50;99.90
46562;DHT22;32289;42.688;23.330;2023-04-25T19:15:39;10.60;99.90
46562;DHT22;32289;42.688;23.330;2023-04-25T19:19:20;10.60;99.90
46562;DHT22;32289;42.688;23.330;2023-04-25T19:23:01;10.60;99.90
46562;DHT22;32289;42.688;23.330;2023-04-25T19:26:41;10.60;99.90
46562;DHT22;32289;42.688;23.330;2023-04-25T19:30:22;10.70;99.90
46562;DHT22;32289;42.688;23.330;2023-04-25T19:34:04;10.70;99.90
46562;DHT22;32289;42.688;23.330;2023-04-25T19:37:45;10.70;99.90
46562;DHT22;32289;42.688;23.330;2023-04-25T19:41:26;10.70;99.90
46562;DHT22;32289;42.688;23.330;2023-04-25T19:45:07;10.70;99.90
46562;DHT22;32289;42.688;23.330;2023-04-25T19:48:48;10.70;99.90
46562;DHT22;32289;42.688;23.330;2023-04-25T19:52:29;10.80;99.90
46562;DHT22;32289;42.688;23.330;2023-04-25T19:56:11;10.80;99.90
46562;DHT22;32289;42.688;23.330;2023-04-25T19:59:52;10.80;99.90
46562;DHT22;32289;42.688;23.330;2023-04-25T20:03:32;10.60;99.90
46562;DHT22;32289;42.688;23.330;2023-04-25T20:07:13;10.70;99.90
46562;DHT22;32289;42.688;23.330;2023-04-25T20:10:55;10.60;99.90
46562;DHT22;32289;42.688;23.330;2023-04-25T20:14:36;10.60;99.90
46562;DHT22;32289;42.688;23.330;2023-04-25T20:18:17;10.60;99.90
46562;DHT22;32289;42.688;23.330;2023-04-25T20:21:58;10.60;99.90
46562;DHT22;32289;42.688;23.330;2023-04-25T20:25:39;10.60;99.90
46562;DHT22;32289;42.688;23.330;2023-04-25T20:29:21;10.70;99.90
46562;DHT22;32289;42.688;23.330;2023-04-25T20:33:02;10.70;99.90
46562;DHT22;32289;42.688;23.330;2023-04-25T20:36:43;10.60;99.90
46562;DHT22;32289;42.688;23.330;2023-04-25T20:40:24;10.70;99.90
46562;DHT22;32289;42.688;23.330;2023-04-25T20:44:05;10.80;99.90
46562;DHT22;32289;42.688;23.330;2023-04-25T20:47:47;10.80;99.90
46562;DHT22;32289;42.688;23.330;2023-04-25T20:51:28;10.80;99.90
46562;DHT22;32289;42.688;23.330;2023-04-25T20:55:10;10.70;99.90
46562;DHT22;32289;42.688;23.330;2023-04-25T20:58:51;10.80;99.90
46562;DHT22;32289;42.688;23.330;2023-04-25T21:02:36;10.70;99.90
46562;DHT22;32289;42.688;23.330;2023-04-25T21:06:17;10.70;99.90
46562;DHT22;32289;42.688;23.330;2023-04-25T21:09:57;10.80;99.90
46562;DHT22;32289;42.688;23.330;2023-04-25T21:13:38;10.80;99.90
46562;DHT22;32289;42.688;23.330;2023-04-25T21:17:19;10.80;99.90
46562;DHT22;32289;42.688;23.330;2023-04-25T21:21:00;10.90;99.90
46562;DHT22;32289;42.688;23.330;2023-04-25T21:24:43;10.90;99.90
46562;DHT22;32289;42.688;23.330;2023-04-25T21:28:24;10.90;99.90
46562;DHT22;32289;42.688;23.330;2023-04-25T21:32:05;10.80;99.90
46562;DHT22;32289;42.688;23.330;2023-04-25T21:35:45;10.80;99.90
46562;DHT22;32289;42.688;23.330;2023-04-25T21:39:27;10.80;99.90
46562;DHT22;32289;42.688;23.330;2023-04-25T21:43:08;10.70;99.90
46562;DHT22;32289;42.688;23.330;2023-04-25T21:46:48;10.70;99.90
46562;DHT22;32289;42.688;23.330;2023-04-25T21:50:29;10.80;99.90
46562;DHT22;32289;42.688;23.330;2023-04-25T21:54:10;10.80;99.90
46562;DHT22;32289;42.688;23.330;2023-04-25T21:57:51;10.80;99.90
46562;DHT22;32289;42.688;23.330;2023-04-25T22:01:32;10.80;99.90
46562;DHT22;32289;42.688;23.330;2023-04-25T22:05:13;10.70;99.90
46562;DHT22;32289;42.688;23.330;2023-04-25T22:08:54;10.70;99.90
46562;DHT22;32289;42.688;23.330;2023-04-25T22:12:35;10.60;99.90
46562;DHT22;32289;42.688;23.330;2023-04-25T22:16:16;10.60;99.90
46562;DHT22;32289;42.688;23.330;2023-04-25T22:19:57;10.70;99.90
46562;DHT22;32289;42.688;23.330;2023-04-25T22:23:38;10.70;99.90
46562;DHT22;32289;42.688;23.330;2023-04-25T22:27:19;10.70;99.90
46562;DHT22;32289;42.688;23.330;2023-04-25T22:31:00;10.70;99.90
46562;DHT22;32289;42.688;23.330;2023-04-25T22:34:41;10.60;99.90
46562;DHT22;32289;42.688;23.330;2023-04-25T22:38:22;10.60;99.90
46562;DHT22;32289;42.688;23.330;2023-04-25T22:42:03;10.50;99.90
46562;DHT22;32289;42.688;23.330;2023-04-25T22:45:44;10.50;99.90
46562;DHT22;32289;42.688;23.330;2023-04-25T22:49:25;10.40;99.90
46562;DHT22;32289;42.688;23.330;2023-04-25T22:53:06;10.50;99.90
46562;DHT22;32289;42.688;23.330;2023-04-25T22:56:48;10.30;99.90
46562;DHT22;32289;42.688;23.330;2023-04-25T23:00:29;10.00;99.90
46562;DHT22;32289;42.688;23.330;2023-04-25T23:04:10;10.00;99.90